Time;durP1;ratioP1;P1;durP2;ratioP2;P2;SDS_P1;SDS_P2;PMS_P1;PMS_P2;Temp;Humidity;BMP_temperature;BMP_pressure;BME280_temperature;BME280_humidity;BME280_pressure;Samples;Min_cycle;Max_cycle;Signal;HPM_P1;HPM_P2
2023/03/25 00:01:07;;;;;;;3.85;1.60;;;;;;;;;;5058614;28;20371;-81
2023/03/25 00:03:36;;;;;;;3.75;1.80;;;;;;;;;;5059559;28;20090;-81
2023/03/25 00:06:04;;;;;;;3.13;1.55;;;;;;;;;;5059259;28;20497;-78
2023/03/25 00:08:30;;;;;;;5.22;1.83;;;;;;;;;;5076304;28;20067;-80
2023/03/25 00:10:57;;;;;;;4.25;1.70;;;;;;;;;;5058515;28;20034;-80
2023/03/25 00:13:22;;;;;;;3.80;1.65;;;;;;;;;;5058741;28;20124;-80
2023/03/25 00:15:48;;;;;;;3.15;1.63;;;;;;;;;;5059295;28;20060;-80
2023/03/25 00:18:16;;;;;;;2.75;1.45;;;;;;;;;;5058297;28;20020;-81
2023/03/25 00:20:44;;;;;;;5.90;1.75;;;;;;;;;;5076777;28;20421;-80
2023/03/25 00:23:11;;;;;;;6.68;1.60;;;;;;;;;;5076089;28;20028;-79
2023/03/25 00:25:36;;;;;;;3.58;1.77;;;;;;;;;;5076299;28;20024;-79
2023/03/25 00:28:02;;;;;;;4.63;1.70;;;;;;;;;;5074714;28;20120;-79
2023/03/25 00:30:28;;;;;;;4.40;1.90;;;;;;;;;;5058002;28;20052;-80
2023/03/25 00:32:56;;;;;;;3.55;1.52;;;;;;;;;;5058100;28;20032;-80
2023/03/25 00:35:22;;;;;;;6.68;1.67;;;;;;;;;;5075920;28;20125;-80
2023/03/25 00:37:51;;;;;;;5.10;1.77;;;;;;;;;;5041328;28;20028;-80
2023/03/25 00:40:16;;;;;;;4.85;1.80;;;;;;;;;;5041330;28;20025;-80
2023/03/25 00:42:43;;;;;;;4.20;1.60;;;;;;;;;;5041315;28;20059;-80
2023/03/25 00:45:10;;;;;;;3.97;1.67;;;;;;;;;;5058179;28;20433;-79
2023/03/25 00:47:36;;;;;;;3.10;1.35;;;;;;;;;;5058171;28;20086;-79
2023/03/25 00:50:02;;;;;;;4.32;1.50;;;;;;;;;;5057850;28;20072;-79
2023/03/25 00:52:28;;;;;;;7.32;1.80;;;;;;;;;;5075668;28;20035;-79
2023/03/25 00:54:53;;;;;;;6.50;1.63;;;;;;;;;;5057771;28;20028;-79
2023/03/25 00:57:18;;;;;;;4.32;1.85;;;;;;;;;;5041017;28;20036;-79
2023/03/25 00:59:44;;;;;;;5.18;1.80;;;;;;;;;;5075678;28;20336;-79
2023/03/25 01:02:10;;;;;;;4.20;1.65;;;;;;;;;;5057355;28;20036;-80
2023/03/25 01:04:38;;;;;;;4.75;1.70;;;;;;;;;;5076027;28;20059;-79
2023/03/25 01:07:03;;;;;;;5.15;1.40;;;;;;;;;;5040915;28;20489;-80
2023/03/25 01:09:29;;;;;;;6.32;1.73;;;;;;;;;;5041557;28;20072;-80
2023/03/25 01:11:54;;;;;;;5.07;1.60;;;;;;;;;;5040881;28;20129;-80
2023/03/25 01:14:23;;;;;;;4.70;1.60;;;;;;;;;;5075328;28;20032;-80
2023/03/25 01:16:48;;;;;;;7.15;1.73;;;;;;;;;;5058711;28;20028;-80
2023/03/25 01:19:14;;;;;;;4.43;1.65;;;;;;;;;;5041249;28;20478;-80
2023/03/25 01:21:40;;;;;;;6.22;1.65;;;;;;;;;;5057819;28;20020;-79
2023/03/25 01:24:06;;;;;;;4.70;1.63;;;;;;;;;;5040484;28;20426;-80
2023/03/25 01:26:32;;;;;;;4.13;1.50;;;;;;;;;;5057789;28;20032;-80
2023/03/25 01:28:57;;;;;;;7.70;1.92;;;;;;;;;;5040265;28;20033;-80
2023/03/25 01:31:24;;;;;;;5.18;1.80;;;;;;;;;;5057542;28;20424;-80
2023/03/25 01:33:50;;;;;;;7.03;1.50;;;;;;;;;;5057469;28;20028;-80
2023/03/25 01:36:16;;;;;;;6.28;1.60;;;;;;;;;;5074884;28;20114;-80
2023/03/25 01:38:41;;;;;;;4.70;1.80;;;;;;;;;;5040685;28;20021;-80
2023/03/25 01:41:08;;;;;;;4.25;1.50;;;;;;;;;;5040191;28;20033;-80
2023/03/25 01:43:34;;;;;;;9.25;2.10;;;;;;;;;;5057024;28;20439;-79
2023/03/25 01:46:00;;;;;;;4.10;1.80;;;;;;;;;;5056597;28;20055;-79
2023/03/25 01:48:34;;;;;;;5.97;1.90;;;;;;;;;;5039929;28;20487;-79
2023/03/25 01:51:14;;;;;;;4.40;1.65;;;;;;;;;;5040193;28;20035;-79
2023/03/25 01:53:39;;;;;;;5.22;1.70;;;;;;;;;;5056764;28;20031;-80
2023/03/25 01:56:06;;;;;;;3.95;1.30;;;;;;;;;;5056676;28;20024;-79
2023/03/25 01:58:32;;;;;;;5.78;1.65;;;;;;;;;;5039976;28;20035;-80
2023/03/25 02:01:00;;;;;;;5.72;1.83;;;;;;;;;;5056467;28;20493;-79
2023/03/25 02:03:25;;;;;;;4.72;1.77;;;;;;;;;;5074371;28;20103;-80
2023/03/25 02:06:01;;;;;;;4.07;1.55;;;;;;;;;;5039801;28;20119;-79
2023/03/25 02:08:27;;;;;;;10.00;1.60;;;;;;;;;;5056781;28;20517;-80
2023/03/25 02:10:53;;;;;;;7.70;1.70;;;;;;;;;;5039667;28;20029;-81
2023/03/25 02:13:19;;;;;;;4.45;1.80;;;;;;;;;;5039583;28;20497;-80
2023/03/25 02:16:10;;;;;;;4.65;1.63;;;;;;;;;;5038903;28;20039;-80
2023/03/25 02:19:09;;;;;;;6.07;1.52;;;;;;;;;;5037373;28;20039;-80
2023/03/25 02:22:10;;;;;;;6.75;1.73;;;;;;;;;;5073940;28;20031;-80
2023/03/25 02:25:18;;;;;;;4.40;2.03;;;;;;;;;;5055767;28;20473;-80
2023/03/25 02:28:09;;;;;;;3.35;1.38;;;;;;;;;;5039369;28;20028;-79
2023/03/25 02:30:45;;;;;;;4.72;1.73;;;;;;;;;;5073755;28;20024;-80
2023/03/25 02:33:41;;;;;;;4.75;1.75;;;;;;;;;;5073965;28;20051;-80
2023/03/25 02:36:28;;;;;;;4.50;1.70;;;;;;;;;;5083121;28;20040;-79
2023/03/25 02:39:06;;;;;;;5.68;1.77;;;;;;;;;;5093960;28;20019;-79
2023/03/25 02:41:47;;;;;;;4.50;1.60;;;;;;;;;;5092444;28;20081;-79
2023/03/25 02:44:29;;;;;;;4.30;1.55;;;;;;;;;;5109981;28;20043;-79
2023/03/25 02:46:58;;;;;;;4.15;1.58;;;;;;;;;;5109468;28;20028;-79
2023/03/25 02:49:28;;;;;;;4.25;1.40;;;;;;;;;;5092296;28;20055;-79
2023/03/25 02:51:59;;;;;;;5.05;1.50;;;;;;;;;;5092085;28;20024;-79
2023/03/25 02:54:26;;;;;;;4.65;1.42;;;;;;;;;;5109857;28;20118;-80
2023/03/25 02:56:56;;;;;;;3.60;1.35;;;;;;;;;;5092164;28;20039;-80
2023/03/25 02:59:22;;;;;;;5.30;1.75;;;;;;;;;;5108988;28;20024;-80
2023/03/25 03:01:49;;;;;;;6.03;1.70;;;;;;;;;;5092099;28;20093;-80
2023/03/25 03:04:15;;;;;;;3.55;1.40;;;;;;;;;;5092836;28;20080;-80
2023/03/25 03:06:41;;;;;;;6.22;1.80;;;;;;;;;;5109175;28;20077;-80
2023/03/25 03:09:32;;;;;;;5.30;1.35;;;;;;;;;;5092041;28;20028;-80
2023/03/25 03:12:08;;;;;;;3.50;1.40;;;;;;;;;;5093229;28;20024;-80
2023/03/25 03:15:10;;;;;;;4.88;1.58;;;;;;;;;;5091912;28;20044;-79
2023/03/25 03:17:48;;;;;;;6.07;1.63;;;;;;;;;;5073405;28;20081;-80
2023/03/25 03:20:32;;;;;;;3.55;1.38;;;;;;;;;;5108483;28;20044;-80
2023/03/25 03:23:04;;;;;;;4.72;1.75;;;;;;;;;;5091957;28;20028;-80
2023/03/25 03:25:30;;;;;;;4.93;1.80;;;;;;;;;;5108743;28;20030;-80
2023/03/25 03:28:23;;;;;;;3.20;1.33;;;;;;;;;;5092186;28;20441;-80
2023/03/25 03:31:14;;;;;;;4.95;1.70;;;;;;;;;;5093440;28;20107;-79
2023/03/25 03:33:49;;;;;;;4.57;1.40;;;;;;;;;;5086173;28;20510;-79
2023/03/25 03:36:16;;;;;;;4.57;1.50;;;;;;;;;;5073992;28;20059;-80
2023/03/25 03:38:46;;;;;;;2.65;1.45;;;;;;;;;;5091661;28;20031;-79
2023/03/25 03:41:19;;;;;;;5.20;1.40;;;;;;;;;;5093275;28;20036;-79
2023/03/25 03:43:48;;;;;;;4.65;1.30;;;;;;;;;;5091778;28;20016;-79
2023/03/25 03:46:19;;;;;;;3.50;1.35;;;;;;;;;;5108502;28;20390;-79
2023/03/25 03:48:47;;;;;;;5.70;1.85;;;;;;;;;;5091598;28;20368;-79
2023/03/25 03:51:20;;;;;;;4.78;1.88;;;;;;;;;;5091652;28;20544;-79
2023/03/25 03:53:48;;;;;;;5.60;1.80;;;;;;;;;;5108593;28;20040;-79
2023/03/25 03:56:45;;;;;;;4.72;1.55;;;;;;;;;;5091575;28;20505;-80
2023/03/25 03:59:16;;;;;;;5.88;1.75;;;;;;;;;;5090611;28;20032;-79
2023/03/25 04:01:45;;;;;;;5.45;1.90;;;;;;;;;;5092763;28;20065;-80
2023/03/25 04:04:19;;;;;;;4.80;1.88;;;;;;;;;;5108817;28;20036;-80
2023/03/25 04:06:58;;;;;;;5.18;1.30;;;;;;;;;;5108572;28;20505;-81
2023/03/25 04:09:39;;;;;;;4.53;1.63;;;;;;;;;;5108756;28;20471;-79
2023/03/25 04:12:12;;;;;;;5.30;2.05;;;;;;;;;;5092926;28;20020;-80
2023/03/25 04:14:38;;;;;;;5.53;1.73;;;;;;;;;;5091449;28;20020;-79
2023/03/25 04:17:06;;;;;;;4.05;1.52;;;;;;;;;;5108530;28;20089;-79
2023/03/25 04:19:32;;;;;;;5.65;1.98;;;;;;;;;;5108712;28;20039;-80
2023/03/25 04:22:00;;;;;;;3.28;1.70;;;;;;;;;;5092974;28;20475;-79
2023/03/25 04:24:30;;;;;;;2.97;1.40;;;;;;;;;;5092578;28;20115;-80
2023/03/25 04:27:03;;;;;;;4.25;1.63;;;;;;;;;;5093333;28;20050;-79
2023/03/25 04:29:32;;;;;;;5.33;1.53;;;;;;;;;;5074574;28;20083;-79
2023/03/25 04:31:58;;;;;;;6.93;1.67;;;;;;;;;;5108562;28;20024;-79
2023/03/25 04:34:25;;;;;;;4.43;1.50;;;;;;;;;;5107364;28;20114;-79
2023/03/25 04:36:51;;;;;;;6.65;2.10;;;;;;;;;;5072337;28;20109;-79
2023/03/25 04:39:21;;;;;;;6.18;1.60;;;;;;;;;;5039675;28;20025;-79
2023/03/25 04:41:47;;;;;;;3.53;1.42;;;;;;;;;;5041780;28;20031;-79
2023/03/25 04:44:12;;;;;;;4.97;1.50;;;;;;;;;;5057887;28;20072;-79
2023/03/25 04:46:37;;;;;;;4.30;1.58;;;;;;;;;;5075941;28;20035;-79
2023/03/25 04:49:05;;;;;;;4.90;1.45;;;;;;;;;;5057860;28;20120;-79
2023/03/25 04:51:31;;;;;;;4.20;1.33;;;;;;;;;;5057915;28;20478;-79
2023/03/25 04:53:57;;;;;;;6.50;1.52;;;;;;;;;;5057765;28;20487;-79
2023/03/25 04:56:23;;;;;;;4.80;1.35;;;;;;;;;;5057769;28;20425;-79
2023/03/25 04:58:48;;;;;;;5.00;1.52;;;;;;;;;;5057623;28;20128;-79
2023/03/25 05:01:30;;;;;;;6.05;1.55;;;;;;;;;;5057610;28;20029;-79
2023/03/25 05:04:04;;;;;;;4.35;1.55;;;;;;;;;;5058349;28;20033;-79
2023/03/25 05:06:33;;;;;;;;;;;;;;;;;;5076542;28;20033;-78
2023/03/25 05:09:00;;;;;;;2.45;1.40;;;;;;;;;;5076347;28;19992;-79
2023/03/25 05:11:27;;;;;;;3.13;1.20;;;;;;;;;;5058014;28;20020;-79
2023/03/25 05:13:53;;;;;;;5.88;2.17;;;;;;;;;;5057503;28;20040;-79
2023/03/25 05:16:18;;;;;;;4.25;1.50;;;;;;;;;;5057719;28;20403;-79
2023/03/25 05:18:44;;;;;;;4.32;1.30;;;;;;;;;;5057577;28;20463;-79
2023/03/25 05:21:10;;;;;;;4.43;1.77;;;;;;;;;;5075466;28;20031;-79
2023/03/25 05:23:35;;;;;;;7.15;1.65;;;;;;;;;;5057408;28;20024;-80
2023/03/25 05:26:02;;;;;;;4.43;1.80;;;;;;;;;;5075313;28;20033;-80
2023/03/25 05:28:29;;;;;;;4.40;1.58;;;;;;;;;;5075706;28;20078;-80
2023/03/25 05:30:54;;;;;;;3.63;1.52;;;;;;;;;;5040918;28;20049;-80
2023/03/25 05:33:20;;;;;;;3.90;1.40;;;;;;;;;;5075615;28;20066;-81
2023/03/25 05:35:45;;;;;;;3.95;1.60;;;;;;;;;;5079109;28;20056;-79
2023/03/25 05:38:12;;;;;;;4.93;1.55;;;;;;;;;;5093998;28;20085;-80
2023/03/25 05:40:38;;;;;;;4.68;1.65;;;;;;;;;;5093918;28;20394;-80
2023/03/25 05:43:05;;;;;;;6.45;1.40;;;;;;;;;;5111244;28;20024;-79
2023/03/25 05:45:31;;;;;;;5.80;1.88;;;;;;;;;;5093800;28;20034;-79
2023/03/25 05:47:58;;;;;;;4.65;1.52;;;;;;;;;;5110799;28;20100;-79
2023/03/25 05:50:23;;;;;;;6.20;1.83;;;;;;;;;;5092651;28;20500;-79
2023/03/25 05:52:50;;;;;;;4.22;1.55;;;;;;;;;;5093661;28;20100;-80
2023/03/25 05:55:17;;;;;;;4.95;2.20;;;;;;;;;;5095370;28;20081;-80
2023/03/25 05:57:43;;;;;;;4.65;1.70;;;;;;;;;;5093664;28;20016;-79
2023/03/25 06:00:10;;;;;;;7.00;1.73;;;;;;;;;;5111037;28;20110;-79
2023/03/25 06:02:38;;;;;;;4.00;1.45;;;;;;;;;;5110956;28;20051;-79
2023/03/25 06:05:08;;;;;;;6.32;1.80;;;;;;;;;;5094056;28;20035;-79
2023/03/25 06:07:36;;;;;;;9.07;2.00;;;;;;;;;;5094868;28;20035;-79
2023/03/25 06:10:02;;;;;;;6.47;1.83;;;;;;;;;;5093419;28;20161;-79
2023/03/25 06:12:31;;;;;;;5.03;1.70;;;;;;;;;;5110726;28;20024;-79
2023/03/25 06:14:57;;;;;;;5.15;1.83;;;;;;;;;;5110098;28;20028;-78
2023/03/25 06:17:22;;;;;;;5.13;1.67;;;;;;;;;;5093888;28;20530;-78
2023/03/25 06:19:49;;;;;;;4.90;1.77;;;;;;;;;;5110340;28;20024;-79
2023/03/25 06:22:14;;;;;;;6.97;1.90;;;;;;;;;;5093276;28;20027;-81
2023/03/25 06:24:41;;;;;;;6.05;1.88;;;;;;;;;;5110376;28;20097;-77
2023/03/25 06:27:10;;;;;;;10.77;2.08;;;;;;;;;;5110577;28;20042;-79
2023/03/25 06:29:41;;;;;;;5.97;1.92;;;;;;;;;;5093075;28;20078;-78
2023/03/25 06:32:08;;;;;;;5.50;1.67;;;;;;;;;;5094690;28;20024;-80
2023/03/25 06:34:33;;;;;;;7.75;2.03;;;;;;;;;;5092998;28;20032;-79
2023/03/25 06:37:00;;;;;;;8.10;2.25;;;;;;;;;;5056070;28;20081;-79
2023/03/25 06:39:30;;;;;;;7.05;2.03;;;;;;;;;;5039595;28;20020;-80
2023/03/25 06:41:56;;;;;;;7.03;2.20;;;;;;;;;;5056846;28;20021;-80
2023/03/25 06:44:21;;;;;;;8.20;1.98;;;;;;;;;;5074138;28;20063;-80
2023/03/25 06:46:47;;;;;;;12.18;2.17;;;;;;;;;;5056454;28;20051;-80
2023/03/25 06:49:12;;;;;;;6.07;1.90;;;;;;;;;;5073828;28;20387;-81
2023/03/25 06:51:37;;;;;;;7.95;2.45;;;;;;;;;;5054869;28;20032;-80
2023/03/25 06:54:03;;;;;;;7.95;2.20;;;;;;;;;;5055236;28;20092;-80
2023/03/25 06:56:29;;;;;;;9.75;2.17;;;;;;;;;;5055129;28;20028;-80
2023/03/25 06:58:54;;;;;;;8.77;1.90;;;;;;;;;;5073002;28;20024;-79
2023/03/25 07:01:19;;;;;;;7.00;1.80;;;;;;;;;;5072585;28;20120;-79
2023/03/25 07:03:45;;;;;;;5.93;1.90;;;;;;;;;;5055154;28;20115;-79
2023/03/25 07:06:15;;;;;;;4.38;1.75;;;;;;;;;;5055331;28;20028;-79
2023/03/25 07:08:40;;;;;;;6.35;1.70;;;;;;;;;;5038294;28;20032;-78
2023/03/25 07:11:06;;;;;;;5.72;1.58;;;;;;;;;;5038662;28;20025;-78
2023/03/25 07:13:32;;;;;;;7.85;2.38;;;;;;;;;;5073356;28;20119;-78
2023/03/25 07:15:58;;;;;;;6.15;2.15;;;;;;;;;;5055263;28;20475;-79
2023/03/25 07:18:24;;;;;;;7.53;2.33;;;;;;;;;;5054946;28;20024;-79
2023/03/25 07:20:49;;;;;;;6.03;2.00;;;;;;;;;;5055624;28;20090;-79
2023/03/25 07:23:15;;;;;;;6.35;1.88;;;;;;;;;;5055401;28;20024;-80
2023/03/25 07:25:40;;;;;;;6.95;2.00;;;;;;;;;;5056581;28;20043;-78
2023/03/25 07:28:06;;;;;;;6.88;1.85;;;;;;;;;;5075181;28;20028;-78
2023/03/25 07:30:31;;;;;;;4.70;1.88;;;;;;;;;;5074711;28;20035;-80
2023/03/25 07:32:57;;;;;;;10.07;2.13;;;;;;;;;;5056200;28;20024;-79
2023/03/25 07:35:23;;;;;;;10.32;1.77;;;;;;;;;;5073293;28;20186;-79
2023/03/25 07:37:48;;;;;;;6.65;2.08;;;;;;;;;;5073469;28;20062;-80
2023/03/25 07:40:14;;;;;;;6.10;1.90;;;;;;;;;;5055653;28;20074;-80
2023/03/25 07:42:40;;;;;;;4.63;1.52;;;;;;;;;;5055739;28;20032;-79
2023/03/25 07:45:06;;;;;;;6.32;1.70;;;;;;;;;;5074217;28;20025;-81
2023/03/25 07:47:31;;;;;;;5.30;1.88;;;;;;;;;;5073617;28;20021;-80
2023/03/25 07:49:57;;;;;;;4.65;1.90;;;;;;;;;;5039104;28;20491;-80
2023/03/25 07:52:22;;;;;;;9.20;2.22;;;;;;;;;;5055256;28;20036;-80
2023/03/25 07:54:49;;;;;;;8.32;1.90;;;;;;;;;;5055905;28;20106;-80
2023/03/25 07:57:14;;;;;;;9.70;2.10;;;;;;;;;;5039807;28;20044;-80
2023/03/25 07:59:40;;;;;;;6.38;1.88;;;;;;;;;;5055753;28;20471;-80
2023/03/25 08:02:06;;;;;;;5.05;1.75;;;;;;;;;;5055546;28;20036;-80
2023/03/25 08:04:31;;;;;;;4.78;1.45;;;;;;;;;;5075203;28;20036;-80
2023/03/25 08:06:56;;;;;;;6.07;1.90;;;;;;;;;;5073905;28;20625;-79
2023/03/25 08:09:22;;;;;;;6.60;1.98;;;;;;;;;;5073478;28;20025;-80
2023/03/25 08:11:48;;;;;;;6.25;1.88;;;;;;;;;;5073859;28;20025;-80
2023/03/25 08:14:13;;;;;;;6.72;2.03;;;;;;;;;;5075835;28;20415;-80
2023/03/25 08:16:39;;;;;;;6.00;2.00;;;;;;;;;;5042869;28;20067;-80
2023/03/25 08:19:04;;;;;;;4.78;1.90;;;;;;;;;;5078152;28;20021;-78
2023/03/25 08:21:30;;;;;;;9.65;2.00;;;;;;;;;;5059681;28;20016;-80
2023/03/25 08:24:01;;;;;;;5.25;1.85;;;;;;;;;;5061250;28;20365;-82
2023/03/25 08:26:28;;;;;;;8.20;2.13;;;;;;;;;;5062363;28;20390;-82
2023/03/25 08:28:56;;;;;;;4.70;1.55;;;;;;;;;;5060153;28;20031;-83
2023/03/25 08:31:29;;;;;;;12.80;2.78;;;;;;;;;;5063382;28;20116;-85
2023/03/25 08:33:59;;;;;;;12.77;2.73;;;;;;;;;;5065489;28;20033;-81
2023/03/25 08:36:24;;;;;;;12.82;3.22;;;;;;;;;;5071200;28;20272;-82
2023/03/25 08:38:50;;;;;;;10.60;3.03;;;;;;;;;;5095161;28;20127;-81
2023/03/25 08:41:16;;;;;;;9.50;2.70;;;;;;;;;;5115397;28;20024;-83
2023/03/25 08:43:41;;;;;;;9.88;2.42;;;;;;;;;;5096146;28;20032;-83
2023/03/25 08:46:07;;;;;;;14.57;2.67;;;;;;;;;;5096879;28;20028;-82
2023/03/25 08:48:32;;;;;;;11.15;3.10;;;;;;;;;;5113425;28;20028;-84
2023/03/25 08:50:58;;;;;;;10.50;2.40;;;;;;;;;;5112032;28;20366;-83
2023/03/25 08:53:24;;;;;;;12.05;2.60;;;;;;;;;;5103779;28;20035;-83
2023/03/25 08:55:51;;;;;;;11.35;3.10;;;;;;;;;;5063947;28;20023;-81
2023/03/25 08:58:17;;;;;;;8.15;2.33;;;;;;;;;;5061852;28;20028;-83
2023/03/25 09:00:43;;;;;;;9.30;2.75;;;;;;;;;;5077265;28;20100;-81
2023/03/25 09:03:08;;;;;;;7.07;2.33;;;;;;;;;;5077468;28;20032;-80
2023/03/25 09:05:36;;;;;;;11.57;2.38;;;;;;;;;;5095282;28;20028;-80
2023/03/25 09:08:02;;;;;;;7.68;2.15;;;;;;;;;;5095055;28;20438;-80
2023/03/25 09:10:28;;;;;;;8.98;2.53;;;;;;;;;;5095219;28;20032;-81
2023/03/25 09:12:53;;;;;;;8.90;2.55;;;;;;;;;;5076885;28;20038;-81
2023/03/25 09:15:19;;;;;;;6.03;2.17;;;;;;;;;;5076982;28;20032;-80
2023/03/25 09:17:45;;;;;;;10.95;2.92;;;;;;;;;;5076945;28;20028;-81
2023/03/25 09:20:11;;;;;;;8.13;2.53;;;;;;;;;;5095190;28;20501;-81
2023/03/25 09:22:37;;;;;;;8.98;2.67;;;;;;;;;;5076955;28;20038;-79
2023/03/25 09:25:05;;;;;;;7.45;2.30;;;;;;;;;;5076663;28;20028;-79
2023/03/25 09:27:31;;;;;;;9.82;2.38;;;;;;;;;;5060252;28;20063;-80
2023/03/25 09:29:56;;;;;;;10.50;2.75;;;;;;;;;;5076730;28;20479;-81
2023/03/25 09:32:21;;;;;;;7.55;2.47;;;;;;;;;;5079132;28;20402;-82
2023/03/25 09:34:50;;;;;;;6.85;2.22;;;;;;;;;;5082298;28;20020;-81
2023/03/25 09:37:16;;;;;;;11.52;2.63;;;;;;;;;;5084540;28;20495;-82
2023/03/25 09:39:41;;;;;;;14.23;3.20;;;;;;;;;;5102617;28;20103;-82
2023/03/25 09:42:12;;;;;;;13.48;2.60;;;;;;;;;;5094717;28;20108;-81
2023/03/25 09:44:46;;;;;;;8.05;2.45;;;;;;;;;;5076725;28;20068;-81
2023/03/25 09:47:12;;;;;;;13.02;3.05;;;;;;;;;;5095052;28;20024;-80
2023/03/25 09:49:43;;;;;;;8.23;2.30;;;;;;;;;;5076374;28;20115;-80
2023/03/25 09:52:15;;;;;;;11.68;2.80;;;;;;;;;;5094911;28;20051;-80
2023/03/25 09:54:45;;;;;;;8.75;2.40;;;;;;;;;;5059633;28;20467;-81
2023/03/25 09:57:16;;;;;;;11.77;2.50;;;;;;;;;;5076562;28;20027;-81
2023/03/25 09:59:48;;;;;;;10.75;2.33;;;;;;;;;;5076257;28;20474;-83
2023/03/25 10:02:32;;;;;;;9.35;2.63;;;;;;;;;;5076656;28;20032;-82
2023/03/25 10:05:19;;;;;;;9.23;2.95;;;;;;;;;;5075938;28;20371;-81
2023/03/25 10:08:03;;;;;;;7.03;2.72;;;;;;;;;;5075877;28;20028;-78
2023/03/25 10:10:51;;;;;;;11.30;2.92;;;;;;;;;;5092749;28;20494;-80
2023/03/25 10:13:28;;;;;;;9.55;3.13;;;;;;;;;;5075988;28;20027;-83
2023/03/25 10:16:25;;;;;;;9.60;2.78;;;;;;;;;;5094115;28;20028;-82
2023/03/25 10:19:20;;;;;;;7.22;2.22;;;;;;;;;;5068302;28;20028;-82
2023/03/25 10:21:58;;;;;;;11.60;2.70;;;;;;;;;;5075381;28;20019;-82
2023/03/25 10:24:47;;;;;;;8.27;2.50;;;;;;;;;;5093592;28;20024;-81
2023/03/25 10:27:25;;;;;;;5.97;2.10;;;;;;;;;;5075721;28;20016;-81
2023/03/25 10:30:03;;;;;;;10.20;2.40;;;;;;;;;;5075380;28;20059;-80
2023/03/25 10:32:57;;;;;;;8.98;2.90;;;;;;;;;;5058691;28;20028;-82
2023/03/25 10:35:37;;;;;;;15.20;2.78;;;;;;;;;;5091986;28;20117;-82
2023/03/25 10:38:20;;;;;;;8.10;2.60;;;;;;;;;;5074874;28;20016;-81
2023/03/25 10:40:51;;;;;;;12.30;3.30;;;;;;;;;;5075341;28;20032;-80
2023/03/25 10:43:30;;;;;;;11.25;2.25;;;;;;;;;;5059253;28;20032;-80
2023/03/25 10:46:33;;;;;;;9.20;2.85;;;;;;;;;;5075378;28;20020;-80
2023/03/25 10:48:59;;;;;;;9.50;2.55;;;;;;;;;;5075976;28;20032;-79
2023/03/25 10:51:35;;;;;;;8.07;2.20;;;;;;;;;;5091911;28;20065;-82
2023/03/25 10:54:00;;;;;;;11.13;2.35;;;;;;;;;;5093397;28;20390;-79
2023/03/25 10:56:46;;;;;;;7.97;2.63;;;;;;;;;;5074988;28;20028;-80
2023/03/25 10:59:18;;;;;;;9.45;2.38;;;;;;;;;;5093059;28;20075;-80
2023/03/25 11:01:44;;;;;;;7.53;2.45;;;;;;;;;;5091850;28;20031;-80
2023/03/25 11:04:13;;;;;;;11.23;2.35;;;;;;;;;;5075677;28;20031;-79
2023/03/25 11:06:45;;;;;;;8.07;2.50;;;;;;;;;;5058894;28;20024;-80
2023/03/25 11:09:25;;;;;;;9.15;2.85;;;;;;;;;;5092521;28;20564;-79
2023/03/25 11:11:52;;;;;;;7.75;2.10;;;;;;;;;;5075650;28;20371;-80
2023/03/25 11:14:23;;;;;;;7.60;2.50;;;;;;;;;;5075518;28;20077;-79
2023/03/25 11:16:56;;;;;;;10.32;2.80;;;;;;;;;;5093849;28;20382;-80
2023/03/25 11:19:32;;;;;;;10.20;2.65;;;;;;;;;;5093421;28;20482;-79
2023/03/25 11:22:07;;;;;;;14.25;2.70;;;;;;;;;;5075960;28;20034;-80
2023/03/25 11:24:34;;;;;;;8.48;2.55;;;;;;;;;;5075415;28;20490;-80
2023/03/25 11:27:00;;;;;;;17.17;2.50;;;;;;;;;;5075788;28;20027;-80
2023/03/25 11:29:26;;;;;;;10.88;2.92;;;;;;;;;;5075406;28;20081;-79
2023/03/25 11:32:06;;;;;;;9.20;2.78;;;;;;;;;;5075419;28;20024;-80
2023/03/25 11:34:32;;;;;;;8.82;2.55;;;;;;;;;;5093441;28;20032;-79
2023/03/25 11:37:15;;;;;;;9.90;2.58;;;;;;;;;;5070134;28;20057;-79
2023/03/25 11:39:42;;;;;;;11.80;2.50;;;;;;;;;;5053299;28;20029;-78
2023/03/25 11:42:16;;;;;;;6.20;2.15;;;;;;;;;;5053050;28;20480;-79
2023/03/25 11:44:49;;;;;;;11.15;2.30;;;;;;;;;;5053066;28;20040;-79
2023/03/25 11:47:20;;;;;;;12.02;2.35;;;;;;;;;;5052615;28;20033;-79
2023/03/25 11:49:48;;;;;;;8.35;2.30;;;;;;;;;;5039165;28;20119;-79
2023/03/25 11:52:17;;;;;;;11.60;2.45;;;;;;;;;;5057030;28;20021;-79
2023/03/25 11:54:43;;;;;;;7.57;2.20;;;;;;;;;;5072726;28;20104;-80
2023/03/25 11:57:12;;;;;;;7.32;2.00;;;;;;;;;;5039084;28;20119;-79
2023/03/25 11:59:43;;;;;;;10.32;2.00;;;;;;;;;;5072375;28;20410;-79
2023/03/25 12:02:23;;;;;;;9.63;2.92;;;;;;;;;;5055546;28;20024;-79
2023/03/25 12:05:11;;;;;;;8.45;2.55;;;;;;;;;;5038887;28;20406;-78
2023/03/25 12:07:47;;;;;;;8.65;2.10;;;;;;;;;;5056739;28;20032;-80
2023/03/25 12:10:31;;;;;;;7.65;2.22;;;;;;;;;;5055575;28;20064;-77
2023/03/25 12:12:56;;;;;;;13.93;2.47;;;;;;;;;;5055805;28;20390;-78
2023/03/25 12:15:33;;;;;;;10.57;2.30;;;;;;;;;;5056585;28;20025;-76
2023/03/25 12:18:02;;;;;;;8.77;2.20;;;;;;;;;;5055266;28;20017;-78
2023/03/25 12:20:40;;;;;;;11.95;2.65;;;;;;;;;;5056612;28;20410;-76
2023/03/25 12:23:20;;;;;;;9.73;2.35;;;;;;;;;;5055564;28;20083;-79
2023/03/25 12:26:18;;;;;;;9.27;2.45;;;;;;;;;;5055110;28;20031;-80
2023/03/25 12:28:50;;;;;;;12.07;2.60;;;;;;;;;;5055031;28;20021;-79
2023/03/25 12:31:31;;;;;;;7.07;2.40;;;;;;;;;;5056267;28;20056;-77
2023/03/25 12:34:02;;;;;;;10.38;2.38;;;;;;;;;;5055111;28;20048;-80
2023/03/25 12:36:43;;;;;;;8.68;2.08;;;;;;;;;;5054684;28;20171;-79
2023/03/25 12:39:09;;;;;;;6.68;2.47;;;;;;;;;;5055058;28;20110;-80
2023/03/25 12:42:14;;;;;;;9.23;2.10;;;;;;;;;;5056198;28;20064;-79
2023/03/25 12:44:45;;;;;;;12.07;2.65;;;;;;;;;;5047737;28;20040;-79
2023/03/25 12:47:19;;;;;;;13.82;2.53;;;;;;;;;;5056186;28;20104;-80
2023/03/25 12:50:04;;;;;;;7.40;2.00;;;;;;;;;;5055933;28;20065;-80
2023/03/25 12:52:36;;;;;;;7.70;2.60;;;;;;;;;;5054692;28;20052;-79
2023/03/25 12:55:08;;;;;;;9.23;2.30;;;;;;;;;;5055892;28;20471;-79
2023/03/25 12:58:12;;;;;;;7.75;2.10;;;;;;;;;;5037965;28;20052;-79
2023/03/25 13:00:44;;;;;;;8.10;2.20;;;;;;;;;;5037587;28;20079;-79
2023/03/25 13:03:31;;;;;;;9.20;2.08;;;;;;;;;;5054396;28;20024;-80
2023/03/25 13:06:00;;;;;;;8.55;1.90;;;;;;;;;;5054411;28;20498;-79
2023/03/25 13:08:47;;;;;;;5.35;1.85;;;;;;;;;;5054776;28;20033;-79
2023/03/25 13:11:17;;;;;;;10.00;2.28;;;;;;;;;;5055802;28;20028;-79
2023/03/25 13:13:44;;;;;;;8.18;2.30;;;;;;;;;;5054283;28;20506;-79
2023/03/25 13:16:30;;;;;;;5.05;1.95;;;;;;;;;;5054229;28;20060;-79
2023/03/25 13:19:07;;;;;;;6.70;1.98;;;;;;;;;;5037005;28;20100;-79
2023/03/25 13:21:36;;;;;;;5.70;1.70;;;;;;;;;;5020996;28;20033;-79
2023/03/25 13:24:09;;;;;;;6.60;1.70;;;;;;;;;;5054052;28;20096;-78
2023/03/25 13:26:35;;;;;;;4.57;1.60;;;;;;;;;;5055504;28;20025;-79
2023/03/25 13:29:25;;;;;;;4.75;1.60;;;;;;;;;;5055150;28;20115;-79
2023/03/25 13:31:51;;;;;;;9.85;2.00;;;;;;;;;;5054167;28;20025;-80
2023/03/25 13:34:25;;;;;;;8.70;2.20;;;;;;;;;;5055316;28;20537;-80
2023/03/25 13:37:13;;;;;;;6.22;1.98;;;;;;;;;;5089543;28;20048;-80
2023/03/25 13:39:44;;;;;;;6.75;1.92;;;;;;;;;;5095606;28;20115;-80
2023/03/25 13:42:19;;;;;;;11.07;2.13;;;;;;;;;;5095197;28;20031;-79
2023/03/25 13:44:45;;;;;;;5.22;1.77;;;;;;;;;;5094363;28;20038;-78
2023/03/25 13:47:11;;;;;;;5.00;1.98;;;;;;;;;;5095480;28;20020;-80
2023/03/25 13:49:41;;;;;;;5.55;1.80;;;;;;;;;;5076955;28;20028;-80
2023/03/25 13:52:07;;;;;;;4.40;1.58;;;;;;;;;;5077080;28;20107;-78
2023/03/25 13:54:32;;;;;;;6.10;2.25;;;;;;;;;;5060606;28;20537;-79
2023/03/25 13:57:18;;;;;;;8.32;1.58;;;;;;;;;;5077466;28;20040;-79
2023/03/25 13:59:50;;;;;;;4.30;1.70;;;;;;;;;;5060177;28;20038;-78
2023/03/25 14:02:35;;;;;;;4.70;1.60;;;;;;;;;;5076731;28;20024;-78
2023/03/25 14:05:53;;;;;;;5.45;1.65;;;;;;;;;;5093729;28;20028;-79
2023/03/25 14:08:28;;;;;;;3.47;1.50;;;;;;;;;;5032823;28;20063;-79
2023/03/25 14:11:09;;;;;;;3.50;1.35;;;;;;;;;;5075692;28;20463;-79
2023/03/25 14:13:47;;;;;;;3.55;1.50;;;;;;;;;;5094662;28;20039;-79
2023/03/25 14:16:19;;;;;;;4.07;1.55;;;;;;;;;;5076802;28;20024;-79
2023/03/25 14:19:02;;;;;;;6.32;1.80;;;;;;;;;;5077115;28;20022;-79
2023/03/25 14:21:37;;;;;;;5.63;1.60;;;;;;;;;;5076622;28;20101;-78
2023/03/25 14:24:17;;;;;;;4.20;1.85;;;;;;;;;;5094783;28;20024;-79
2023/03/25 14:27:08;;;;;;;6.10;1.50;;;;;;;;;;5094681;28;20024;-79
2023/03/25 14:29:37;;;;;;;6.75;2.05;;;;;;;;;;5080392;28;20036;-78
2023/03/25 14:32:15;;;;;;;4.25;1.70;;;;;;;;;;5093488;28;20114;-78
2023/03/25 14:34:41;;;;;;;4.60;1.50;;;;;;;;;;5094643;28;20028;-78
2023/03/25 14:37:06;;;;;;;5.13;1.55;;;;;;;;;;5075942;28;20490;-79
2023/03/25 14:39:31;;;;;;;3.17;1.40;;;;;;;;;;5094645;28;20367;-79
2023/03/25 14:41:57;;;;;;;2.20;1.15;;;;;;;;;;5076001;28;20028;-78
2023/03/25 14:44:26;;;;;;;7.03;1.50;;;;;;;;;;5094585;28;20419;-78
2023/03/25 14:47:02;;;;;;;3.55;1.23;;;;;;;;;;5076873;28;20024;-80
2023/03/25 14:49:52;;;;;;;4.07;1.52;;;;;;;;;;5075859;28;20024;-79
2023/03/25 14:52:25;;;;;;;4.70;1.30;;;;;;;;;;5094290;28;20024;-79
2023/03/25 14:54:51;;;;;;;5.95;1.23;;;;;;;;;;5075930;28;20367;-81
2023/03/25 14:57:29;;;;;;;5.40;1.67;;;;;;;;;;5076116;28;20384;-80
2023/03/25 15:00:00;;;;;;;5.28;1.70;;;;;;;;;;5075778;28;20024;-79
2023/03/25 15:02:27;;;;;;;7.20;1.77;;;;;;;;;;5059106;28;20458;-80
